This is the latest recevied weather packets stored in our database for station/object EA4IAJ-12. If no packets are shown the sender has not sent any weather packets the latest 10 day(s).
| Time | Temp. | Humidity | Pressure | Rain* | Wind** | Luminosity | Snow |
|---|---|---|---|---|---|---|---|
| 1787934984 | 28.89° C | 33% | 1042.9 hPa | - | - | - | - |
| 1787934083 | 29.44° C | 33% | 1044.4 hPa | - | - | - | - |
| 1787933183 | 29.44° C | 34% | 1044.6 hPa | - | - | - | - |
| 1787932295 | 30° C | 34% | 1046.5 hPa | - | - | - | - |
| 1787931394 | 30° C | 34% | 1046.6 hPa | - | - | - | - |
| 1787930493 | 30.56° C | 34% | 1049.2 hPa | - | - | - | - |
| 1787929593 | 30.56° C | 35% | 1050.4 hPa | - | - | - | - |
| 1787928692 | 31.11° C | 36% | 1051.5 hPa | - | - | - | - |
| 1787928366 | 31.11° C | 36% | 1052.3 hPa | - | - | - | - |
| 1787927792 | 31.11° C | 36% | 1052.3 hPa | - | - | - | - |
| 1787926891 | 30.56° C | 37% | 1051.5 hPa | - | - | - | - |
| 1787925991 | 33.33° C | 39% | 1063.6 hPa | - | - | - | - |
| 1787925090 | 31.11° C | 40% | 1054.9 hPa | - | - | - | - |
| 1787924189 | 31.67° C | 41% | 1058.3 hPa | - | - | - | - |
| 1787923289 | 31.67° C | 43% | 1058.7 hPa | - | - | - | - |
| 1787922388 | 32.22° C | 46% | 1060.7 hPa | - | - | - | - |
| 1787921488 | 31.11° C | 48% | 1057.1 hPa | - | - | - | - |
| 1787920587 | 30° C | 50% | 1053.1 hPa | - | - | - | - |
| 1787919687 | 29.44° C | 53% | 1051.8 hPa | - | - | - | - |
| 1787918786 | 32.78° C | 61% | 1065.4 hPa | - | - | - | - |
| 1787917886 | 29.44° C | 63% | 1052.8 hPa | - | - | - | - |
| 1787916985 | 31.67° C | 74% | 1064.8 hPa | - | - | - | - |
| 1787916084 | 32.22° C | 82% | 1067.7 hPa | - | - | - | - |
| 1787915184 | 30.56° C | 88% | 1060.3 hPa | - | - | - | - |
| 1787914283 | 31.67° C | 96% | 1066.8 hPa | - | - | - | - |
* Rain since midnight (hover to see other rain measurements)
** Current wind speed in m/s (hover to see current wind gust speed)